East Keating, Pennsylvania
Current Conditions -  °F | °C
As of 3:54 AM on Wednesday 28 Jan 2015 (Local Time) from KFIG Reporting Station
Clear Clear  
Wind Chill: -6°   Ceiling: Unl
Heat Index:   Visibility: 10mi
Dew Point:   Wind: 7mph
Humidity: 87%   Direction: 210°SSW
Pressure: 30.07"   Gusts: NA
Location:  41.3342°N, 77.9676°W
Report Text: KFIG 280854Z AUTO 21006KT 10SM CLR M14/M16 A3007 RMK AO2 SLP212 T11441161 53009
Loading
Personal Weather Stations






























Interactive Weather Map New forecast layout! Learn more

10-Day Weather Forecast

Advertisements
Track Severe Weather on mobile